Airfield :
LOGIN :

Register | Disclaimer

   EN    FR    IT 

 










Legend :    VFR   Marginal VFR   IFR   Intensive IFR   Very Intensive IFR
Visi :
Ceiling :
>= 8 km
>= 3000ft
5 to 8 km
1000 to 3000 ft
1500m to 5 km
500 to 1000 ft
800 to 1500m
200 to 500 ft
< 800m
< 200 ft
Symbols :   Thunderstorms  Fog  Heavy snow  Heavy precipitations  Wind > 20 kt
SIGMETs :     Misc.  Thunderstorms  Icing  Turbulence  Mountain Waves  Volcanic Ashes






- Airport Elevation : 1213 ft
- IATA code : SCQ


LEST - Santiago de Compostela

CURRENT METAR :
  • 072000Z VRB02KT 9999 SCT017 BKN035 14/13 Q1022 NOSIG

EXPIRED METARs :
  • 071930Z VRB01KT 9999 SCT017 SCT030 15/13 Q1022 NOSIG
  • 071900Z VRB02KT 9999 SCT017 15/13 Q1021 NOSIG
  • 071830Z 30003KT 240V330 9999 SCT017 16/13 Q1021 NOSIG
  • 071800Z 29003KT 240V350 9999 FEW017 SCT030 16/13 Q1021 NOSIG
  • 071730Z 27004KT 230V320 9999 FEW017 SCT030 17/13 Q1021 NOSIG
  • 071700Z 29005KT 230V350 9999 FEW018 SCT030 17/13 Q1021 NOSIG

TAF TAF LEST
Valid from the 07 at 18:00 until the 08 at 18:00 UTC


071700Z 0718/0818 20008KT 9999 SCT030 TX17/0814Z TN08/0806Z
TEMPO 0720/0803 BKN010
TEMPO 0800/0809 0800 FG VV001



MET'MAP, your aeronautical weather chart ! - Copyright ORBIFLY December 2007 - Disclaimer

ORBIFLY MET'MAP TEAM :

Programming & Development : Alexandra Zaïnal
Concept & original design : Baudouin d'Aumeries
Assistance for programming : Marc-Olivier Méhu
Technical & hardware support : Manuel Goepfert

Contact : metmap@orbifly.com




SOURCES & CREDITS :

   NOAA